createdAt,value
2018-10-19T00:00:25.040Z,38.70
2018-10-19T00:01:25.013Z,37.40
2018-10-19T00:02:25.016Z,40.00
2018-10-19T00:03:25.009Z,42.20
2018-10-19T00:04:25.037Z,40.10
2018-10-19T00:05:25.008Z,39.30
2018-10-19T00:06:25.005Z,43.50
2018-10-19T00:07:25.007Z,43.40
2018-10-19T00:08:25.005Z,42.60
2018-10-19T00:09:25.033Z,38.80
2018-10-19T00:10:25.000Z,40.40
2018-10-19T00:11:24.999Z,39.80
2018-10-19T00:12:25.004Z,41.20
2018-10-19T00:13:24.997Z,37.20
2018-10-19T00:14:25.042Z,43.30
2018-10-19T00:15:24.997Z,38.30
2018-10-19T00:16:24.994Z,41.70
2018-10-19T00:17:24.988Z,38.80
2018-10-19T00:18:24.991Z,42.50
2018-10-19T00:19:25.015Z,41.00
2018-10-19T00:20:24.988Z,41.20
2018-10-19T00:21:24.984Z,43.10
2018-10-19T00:22:24.984Z,39.20
2018-10-19T00:23:24.992Z,42.40
2018-10-19T00:24:25.008Z,46.90
2018-10-19T00:25:24.980Z,44.80
2018-10-19T00:26:24.980Z,43.90
2018-10-19T00:27:24.973Z,42.90
2018-10-19T00:28:24.972Z,42.30
2018-10-19T00:29:25.009Z,40.70
2018-10-19T00:30:24.968Z,40.50
2018-10-19T00:31:24.973Z,45.30
2018-10-19T00:32:24.968Z,40.60
2018-10-19T00:33:24.963Z,43.20
2018-10-19T00:34:24.994Z,38.70
2018-10-19T00:35:24.995Z,42.80
2018-10-19T00:36:24.963Z,38.50
2018-10-19T00:37:24.964Z,42.30
2018-10-19T00:38:24.961Z,42.50
2018-10-19T00:39:24.962Z,42.20
2018-10-19T00:40:24.991Z,42.00
2018-10-19T00:41:24.956Z,40.10
2018-10-19T00:42:24.956Z,40.40
2018-10-19T00:43:24.955Z,38.20
2018-10-19T00:44:24.956Z,40.60
2018-10-19T00:45:24.985Z,41.90
2018-10-19T00:46:24.949Z,41.20
2018-10-19T00:47:24.948Z,41.80
2018-10-19T00:48:24.947Z,43.60
2018-10-19T00:49:24.948Z,42.40
2018-10-19T00:50:24.976Z,38.30
2018-10-19T00:51:24.943Z,42.00
2018-10-19T00:52:24.939Z,40.90
2018-10-19T00:53:24.947Z,40.70
2018-10-19T00:54:24.937Z,42.40
2018-10-19T00:55:24.968Z,40.00
2018-10-19T00:56:24.936Z,41.90
2018-10-19T00:57:24.956Z,42.40
2018-10-19T00:58:24.936Z,39.40
2018-10-19T00:59:24.931Z,41.90
2018-10-19T01:00:24.955Z,39.20
2018-10-19T01:01:24.957Z,41.20
2018-10-19T01:02:24.921Z,41.10
2018-10-19T01:03:24.924Z,39.70
2018-10-19T01:04:24.926Z,40.20
2018-10-19T01:05:24.921Z,40.80
2018-10-19T01:06:24.945Z,43.30
2018-10-19T01:07:24.918Z,41.10
2018-10-19T01:08:24.916Z,41.20
2018-10-19T01:09:24.914Z,39.90
2018-10-19T01:10:24.917Z,40.10
2018-10-19T01:11:24.944Z,41.80
2018-10-19T01:12:24.914Z,41.90
2018-10-19T01:13:24.912Z,43.60
2018-10-19T01:14:24.906Z,42.90
2018-10-19T01:15:24.903Z,39.60
2018-10-19T01:16:24.934Z,42.30
2018-10-19T01:17:24.903Z,43.10
2018-10-19T01:18:24.904Z,44.70
2018-10-19T01:19:24.902Z,42.70
2018-10-19T01:20:24.902Z,42.50
2018-10-19T01:21:24.929Z,42.30
2018-10-19T01:22:24.894Z,43.80
2018-10-19T01:23:24.894Z,41.90
2018-10-19T01:24:24.893Z,40.70
2018-10-19T01:25:24.889Z,42.30
2018-10-19T01:26:24.921Z,42.10
2018-10-19T01:27:24.886Z,38.70
2018-10-19T01:28:24.887Z,39.80
2018-10-19T01:29:24.884Z,41.30
2018-10-19T01:30:24.883Z,43.80
2018-10-19T01:31:24.916Z,41.30
2018-10-19T01:32:24.891Z,40.50
2018-10-19T01:33:24.879Z,43.50
2018-10-19T01:34:24.878Z,39.20
2018-10-19T01:35:24.882Z,43.90
2018-10-19T01:36:24.908Z,41.70
2018-10-19T01:37:24.872Z,35.60
2018-10-19T01:38:24.872Z,40.00
2018-10-19T01:39:24.869Z,39.70
2018-10-19T01:40:24.901Z,39.30
2018-10-19T01:41:24.869Z,36.70
2018-10-19T01:42:24.865Z,41.30
2018-10-19T01:43:24.864Z,39.70
2018-10-19T01:44:24.867Z,39.90
2018-10-19T01:45:24.891Z,42.10
2018-10-19T01:46:24.886Z,42.30
2018-10-19T01:47:24.854Z,40.80
2018-10-19T01:48:24.852Z,41.60
2018-10-19T01:49:24.853Z,40.80
2018-10-19T01:50:24.852Z,42.20
2018-10-19T01:51:24.878Z,39.80
2018-10-19T01:52:24.851Z,41.50
2018-10-19T01:53:24.848Z,42.30
2018-10-19T01:54:24.846Z,44.20
2018-10-19T01:55:24.873Z,44.00
2018-10-19T01:56:24.843Z,46.00
2018-10-19T01:57:24.844Z,44.90
2018-10-19T01:58:24.838Z,44.80
2018-10-19T01:59:24.839Z,41.10
2018-10-19T02:00:24.872Z,45.70
2018-10-19T02:01:24.835Z,45.20
2018-10-19T02:02:24.835Z,45.10
2018-10-19T02:03:24.831Z,43.40
2018-10-19T02:04:24.831Z,43.50
2018-10-19T02:05:24.860Z,45.30
2018-10-19T02:06:24.826Z,44.20
2018-10-19T02:07:24.823Z,47.40
2018-10-19T02:08:24.825Z,49.40
2018-10-19T02:09:24.824Z,44.70
2018-10-19T02:10:24.848Z,45.70
2018-10-19T02:11:24.819Z,48.20
2018-10-19T02:12:24.813Z,46.20
2018-10-19T02:13:24.817Z,45.50
2018-10-19T02:14:24.848Z,46.10
2018-10-19T02:15:24.821Z,43.90
2018-10-19T02:16:24.839Z,46.60
2018-10-19T02:17:24.808Z,50.50
2018-10-19T02:18:24.809Z,49.60
2018-10-19T02:19:24.806Z,47.70
2018-10-19T02:20:24.837Z,47.90
2018-10-19T02:21:24.801Z,49.10
2018-10-19T02:22:24.801Z,48.60
2018-10-19T02:23:24.800Z,48.60
2018-10-19T02:24:24.825Z,50.50
2018-10-19T02:25:24.796Z,52.10
2018-10-19T02:26:24.825Z,47.60
2018-10-19T02:27:24.793Z,50.80
2018-10-19T02:28:24.793Z,47.10
2018-10-19T02:29:24.794Z,51.10
2018-10-19T02:30:24.826Z,46.50
2018-10-19T02:31:24.786Z,47.90
2018-10-19T02:32:24.781Z,49.20
2018-10-19T02:33:24.783Z,47.10
2018-10-19T02:34:24.814Z,49.60
2018-10-19T02:35:24.780Z,49.40
2018-10-19T02:36:24.774Z,46.80
2018-10-19T02:37:24.772Z,48.00
2018-10-19T02:38:24.777Z,49.30
2018-10-19T02:39:24.801Z,42.40
2018-10-19T02:40:24.771Z,46.00
2018-10-19T02:41:24.772Z,48.10
2018-10-19T02:42:24.767Z,44.80
2018-10-19T02:43:24.761Z,48.40
2018-10-19T02:44:24.799Z,46.20
2018-10-19T02:45:24.761Z,43.20
2018-10-19T02:46:24.789Z,45.20
2018-10-19T02:47:24.761Z,43.40
2018-10-19T02:48:24.756Z,45.70
2018-10-19T02:49:24.748Z,44.80
2018-10-19T02:50:24.785Z,48.40
2018-10-19T02:51:24.763Z,46.20
2018-10-19T02:52:24.751Z,48.00
2018-10-19T02:53:24.749Z,46.50
2018-10-19T02:54:24.744Z,45.60
2018-10-19T02:55:24.775Z,44.40
2018-10-19T02:56:24.740Z,43.80
2018-10-19T02:57:24.747Z,43.80
2018-10-19T02:58:24.738Z,44.50
2018-10-19T02:59:24.740Z,41.70
2018-10-19T03:00:24.762Z,45.30
2018-10-19T03:01:24.734Z,44.60
2018-10-19T03:02:24.729Z,44.90
2018-10-19T03:03:24.734Z,44.30
2018-10-19T03:04:24.727Z,42.80
2018-10-19T03:05:24.754Z,45.90
2018-10-19T03:06:24.754Z,42.90
2018-10-19T03:07:24.726Z,45.70
2018-10-19T03:08:24.718Z,45.70
2018-10-19T03:09:24.724Z,43.50
2018-10-19T03:10:24.719Z,44.50
2018-10-19T03:11:24.773Z,46.50
2018-10-19T03:12:24.717Z,47.40
2018-10-19T03:13:24.715Z,46.10
2018-10-19T03:14:24.713Z,43.70
2018-10-19T03:15:24.744Z,49.00
2018-10-19T03:16:24.708Z,45.30
2018-10-19T03:17:24.736Z,47.20
2018-10-19T03:18:24.703Z,42.50
2018-10-19T03:19:24.790Z,45.50
2018-10-19T03:20:24.701Z,41.30
2018-10-19T03:21:24.725Z,46.70
2018-10-19T03:22:24.698Z,45.10
2018-10-19T03:23:24.696Z,47.50
2018-10-19T03:24:24.690Z,46.50
2018-10-19T03:25:24.738Z,48.60
2018-10-19T03:26:24.790Z,45.70
2018-10-19T03:27:24.717Z,48.50
2018-10-19T03:28:24.687Z,45.70
2018-10-19T03:29:24.685Z,44.60
2018-10-19T03:30:24.682Z,44.40
2018-10-19T03:31:24.711Z,46.90
2018-10-19T03:32:24.676Z,44.10
2018-10-19T03:33:24.680Z,48.40
2018-10-19T03:34:24.683Z,45.90
2018-10-19T03:35:24.678Z,48.10
2018-10-19T03:36:24.703Z,46.30
2018-10-19T03:37:24.677Z,44.60
2018-10-19T03:38:24.666Z,47.10
2018-10-19T03:39:24.666Z,49.20
2018-10-19T03:40:24.669Z,46.30
2018-10-19T03:41:24.700Z,49.70
2018-10-19T03:42:24.662Z,50.70
2018-10-19T03:43:24.660Z,47.60
2018-10-19T03:44:24.658Z,46.20
2018-10-19T03:45:24.687Z,47.00
2018-10-19T03:46:24.656Z,49.80
2018-10-19T03:47:24.678Z,47.20
2018-10-19T03:48:24.650Z,47.80
2018-10-19T03:49:24.649Z,50.20
2018-10-19T03:50:24.660Z,49.70
2018-10-19T03:51:24.675Z,48.10
2018-10-19T03:52:24.643Z,48.90
2018-10-19T03:53:24.649Z,45.70
2018-10-19T03:54:24.640Z,47.80
2018-10-19T03:55:24.639Z,48.40
2018-10-19T03:56:24.663Z,45.50
2018-10-19T03:57:24.635Z,47.90
2018-10-19T03:58:24.633Z,49.50
2018-10-19T03:59:24.632Z,47.70
2018-10-19T04:00:24.656Z,49.60
2018-10-19T04:01:24.636Z,52.50
2018-10-19T04:02:24.625Z,49.80
2018-10-19T04:03:24.674Z,51.50
2018-10-19T04:04:24.625Z,54.00
2018-10-19T04:05:24.652Z,56.40
2018-10-19T04:06:24.618Z,49.70
2018-10-19T04:07:24.622Z,51.00
2018-10-19T04:08:24.613Z,49.40
2018-10-19T04:09:24.616Z,49.60
2018-10-19T04:10:24.641Z,51.50
2018-10-19T04:11:24.618Z,55.40
2018-10-19T04:12:24.608Z,51.60
2018-10-19T04:13:24.602Z,53.60
2018-10-19T04:14:24.604Z,52.00
2018-10-19T04:15:25.032Z,52.10
2018-10-19T04:16:24.608Z,51.70
2018-10-19T04:17:24.600Z,53.10
2018-10-19T04:18:24.598Z,53.70
2018-10-19T04:19:24.596Z,55.40
2018-10-19T04:20:24.620Z,55.40
2018-10-19T04:21:24.593Z,52.90
2018-10-19T04:22:24.591Z,53.00
2018-10-19T04:23:24.589Z,52.60
2018-10-19T04:24:24.582Z,57.50
2018-10-19T04:25:24.611Z,51.10
2018-10-19T04:26:24.583Z,54.40
2018-10-19T04:27:24.631Z,52.60
2018-10-19T04:28:24.573Z,55.20
2018-10-19T04:29:24.576Z,53.00
2018-10-19T04:30:24.604Z,53.40
2018-10-19T04:31:24.571Z,56.20
2018-10-19T04:32:24.573Z,56.90
2018-10-19T04:33:24.568Z,57.40
2018-10-19T04:34:24.567Z,58.50
2018-10-19T04:35:24.593Z,56.30
2018-10-19T04:36:24.560Z,56.90
2018-10-19T04:37:24.559Z,52.10
2018-10-19T04:38:24.558Z,56.40
2018-10-19T04:39:24.557Z,57.30
2018-10-19T04:40:24.585Z,53.90
2018-10-19T04:41:24.577Z,60.00
2018-10-19T04:42:24.583Z,56.50
2018-10-19T04:43:24.552Z,59.20
2018-10-19T04:44:24.575Z,53.90
2018-10-19T04:45:24.546Z,57.20
2018-10-19T04:46:24.537Z,58.60
2018-10-19T04:47:24.569Z,53.20
2018-10-19T04:48:24.540Z,59.80
2018-10-19T04:49:24.538Z,58.30
2018-10-19T04:50:24.559Z,56.10
2018-10-19T04:51:24.534Z,59.60
2018-10-19T04:52:24.532Z,57.10
2018-10-19T04:53:24.532Z,53.70
2018-10-19T04:54:24.536Z,55.30
2018-10-19T04:55:24.555Z,56.50
2018-10-19T04:56:24.524Z,51.90
2018-10-19T04:57:24.523Z,55.00
2018-10-19T04:58:24.524Z,55.10
2018-10-19T04:59:24.582Z,54.70
2018-10-19T05:00:24.548Z,52.30
2018-10-19T05:01:24.516Z,57.60
2018-10-19T05:02:24.533Z,57.60
2018-10-19T05:03:24.517Z,52.70
2018-10-19T05:04:24.565Z,58.60
2018-10-19T05:05:24.632Z,55.80
2018-10-19T05:06:24.519Z,52.00
2018-10-19T05:07:24.502Z,57.10
2018-10-19T05:08:25.474Z,57.20
2018-10-19T05:09:24.505Z,56.00
2018-10-19T05:10:24.524Z,58.70
2018-10-19T05:11:24.494Z,55.50
2018-10-19T05:12:24.529Z,56.40
2018-10-19T05:13:24.493Z,59.80
2018-10-19T05:14:24.493Z,57.60
2018-10-19T05:15:24.520Z,54.50
2018-10-19T05:16:24.485Z,53.80
2018-10-19T05:17:24.497Z,53.00
2018-10-19T05:18:24.482Z,57.50
2018-10-19T05:19:24.481Z,56.20
2018-10-19T05:20:24.973Z,55.70
2018-10-19T05:21:25.927Z,56.00
2018-10-19T05:22:24.473Z,53.80
2018-10-19T05:23:24.481Z,55.80
2018-10-19T05:24:24.469Z,53.80
2018-10-19T05:25:24.501Z,55.50
2018-10-19T05:26:24.466Z,53.10
2018-10-19T05:27:24.467Z,53.10
2018-10-19T05:28:24.462Z,51.30
2018-10-19T05:29:24.459Z,49.50
2018-10-19T05:30:24.488Z,53.80
2018-10-19T05:31:24.462Z,47.40
2018-10-19T05:32:24.455Z,47.80
2018-10-19T05:33:24.455Z,51.80
2018-10-19T05:34:25.434Z,51.10
2018-10-19T05:35:24.476Z,51.00
2018-10-19T05:36:24.448Z,50.70
2018-10-19T05:37:24.618Z,53.20
2018-10-19T05:38:24.441Z,52.60
2018-10-19T05:39:24.446Z,52.40
2018-10-19T05:40:24.466Z,52.00
2018-10-19T05:41:24.436Z,54.50
2018-10-19T05:42:24.439Z,51.70
2018-10-19T05:43:24.498Z,55.50
2018-10-19T05:44:24.437Z,49.50
2018-10-19T05:45:24.462Z,52.60
2018-10-19T05:46:24.431Z,50.00
2018-10-19T05:47:24.427Z,53.60
2018-10-19T05:48:24.425Z,52.10
2018-10-19T05:49:24.420Z,55.00
2018-10-19T05:50:25.451Z,56.00
2018-10-19T05:51:24.917Z,58.30
2018-10-19T05:52:24.939Z,53.90
2018-10-19T05:53:24.460Z,55.20
2018-10-19T05:54:24.937Z,53.90
2018-10-19T05:55:25.930Z,58.10
2018-10-19T05:56:24.406Z,56.90
2018-10-19T05:57:24.410Z,53.90
2018-10-19T05:58:24.405Z,52.90
2018-10-19T05:59:25.047Z,56.30
2018-10-19T06:00:24.432Z,53.70
2018-10-19T06:01:24.410Z,56.50
2018-10-19T06:02:24.494Z,57.70
2018-10-19T06:03:24.398Z,54.20
2018-10-19T06:04:24.396Z,52.40
2018-10-19T06:05:24.419Z,55.10
2018-10-19T06:06:24.388Z,49.00
2018-10-19T06:07:24.387Z,49.80
2018-10-19T06:08:24.380Z,49.70
2018-10-19T06:09:24.383Z,51.80
2018-10-19T06:10:24.407Z,51.50
2018-10-19T06:11:24.382Z,55.10
2018-10-19T06:12:24.377Z,53.80
2018-10-19T06:13:24.376Z,57.20
2018-10-19T06:14:24.371Z,52.80
2018-10-19T06:15:24.395Z,52.30
2018-10-19T06:16:24.372Z,56.90
2018-10-19T06:17:24.361Z,53.40
2018-10-19T06:18:24.364Z,51.80
2018-10-19T06:19:24.395Z,53.20
2018-10-19T06:20:24.360Z,53.20
2018-10-19T06:21:24.363Z,51.20
2018-10-19T06:22:24.356Z,50.30
2018-10-19T06:23:24.359Z,52.80
2018-10-19T06:24:24.386Z,58.00
2018-10-19T06:25:24.384Z,56.20
2018-10-19T06:26:24.403Z,51.90
2018-10-19T06:27:24.346Z,53.50
2018-10-19T06:28:24.344Z,55.70
2018-10-19T06:29:24.938Z,51.90
2018-10-19T06:30:24.369Z,54.80
2018-10-19T06:31:24.344Z,50.70
2018-10-19T06:32:24.342Z,51.70
2018-10-19T06:33:24.335Z,49.20
2018-10-19T06:34:24.334Z,48.90
2018-10-19T06:35:24.357Z,56.70
2018-10-19T06:36:24.327Z,50.80
2018-10-19T06:37:24.337Z,50.50
2018-10-19T06:38:24.325Z,46.90
2018-10-19T06:39:24.393Z,46.70
2018-10-19T06:40:24.345Z,46.30
2018-10-19T06:41:24.319Z,47.00
2018-10-19T06:42:24.315Z,45.80
2018-10-19T06:43:24.314Z,46.90
2018-10-19T06:44:24.341Z,46.80
2018-10-19T06:45:24.309Z,43.10
2018-10-19T06:46:24.305Z,42.30
2018-10-19T06:47:24.381Z,40.00
2018-10-19T06:48:24.304Z,42.80
2018-10-19T06:49:24.329Z,38.60
2018-10-19T06:50:24.294Z,42.10
2018-10-19T06:51:24.299Z,38.60
2018-10-19T06:52:24.295Z,41.80
2018-10-19T06:53:24.287Z,40.30
2018-10-19T06:54:24.319Z,39.80
2018-10-19T06:55:24.290Z,39.90
2018-10-19T06:56:24.287Z,36.40
2018-10-19T06:57:24.285Z,40.40
2018-10-19T06:58:24.283Z,40.90
2018-10-19T06:59:24.370Z,39.30
2018-10-19T07:00:24.280Z,39.60
2018-10-19T07:01:24.277Z,40.60
2018-10-19T07:02:24.278Z,38.90
2018-10-19T07:03:24.277Z,38.70
2018-10-19T07:04:24.306Z,42.60
2018-10-19T07:05:24.296Z,41.80
2018-10-19T07:06:24.267Z,39.70
2018-10-19T07:07:24.266Z,42.50
2018-10-19T07:08:24.326Z,43.10
2018-10-19T07:09:24.261Z,40.80
2018-10-19T07:10:24.297Z,41.00
2018-10-19T07:11:24.257Z,46.60
2018-10-19T07:12:24.257Z,41.10
2018-10-19T07:13:24.253Z,43.70
2018-10-19T07:14:24.249Z,44.80
2018-10-19T07:15:24.279Z,44.60
2018-10-19T07:16:24.249Z,48.60
2018-10-19T07:17:24.246Z,41.00
2018-10-19T07:18:24.245Z,44.10
2018-10-19T07:19:24.241Z,41.80
2018-10-19T07:20:24.270Z,45.90
2018-10-19T07:21:24.238Z,45.20
2018-10-19T07:22:24.243Z,45.00
2018-10-19T07:23:24.237Z,45.20
2018-10-19T07:24:24.259Z,46.90
2018-10-19T07:25:24.230Z,49.20
2018-10-19T07:26:24.230Z,50.60
2018-10-19T07:27:24.236Z,47.60
2018-10-19T07:28:24.228Z,46.10
2018-10-19T07:29:24.277Z,48.70
2018-10-19T07:30:24.228Z,46.50
2018-10-19T07:31:24.224Z,48.40
2018-10-19T07:32:24.219Z,44.30
2018-10-19T07:33:24.220Z,47.40
2018-10-19T07:34:24.244Z,47.10
2018-10-19T07:35:24.217Z,47.00
2018-10-19T07:36:24.296Z,48.50
2018-10-19T07:37:24.213Z,44.90
2018-10-19T07:38:24.212Z,44.40
2018-10-19T07:39:24.237Z,44.90
2018-10-19T07:40:24.206Z,41.60
2018-10-19T07:41:24.204Z,38.60
2018-10-19T07:42:24.224Z,40.60
2018-10-19T07:43:24.202Z,37.10
2018-10-19T07:44:24.240Z,35.50
2018-10-19T07:45:24.197Z,37.20
2018-10-19T07:46:24.204Z,36.90
2018-10-19T07:47:24.382Z,35.70
2018-10-19T07:48:24.246Z,39.20
2018-10-19T07:49:24.229Z,38.30
2018-10-19T07:50:24.189Z,36.70
2018-10-19T07:51:24.189Z,36.90
2018-10-19T07:52:24.202Z,35.20
2018-10-19T07:53:24.189Z,36.90
2018-10-19T07:54:24.245Z,36.70
2018-10-19T07:55:24.182Z,37.20
2018-10-19T07:56:24.183Z,39.80
2018-10-19T07:57:24.182Z,34.50
2018-10-19T07:58:24.191Z,37.10
2018-10-19T07:59:24.205Z,37.70
2018-10-19T08:00:24.221Z,38.60
2018-10-19T08:01:24.172Z,33.70
2018-10-19T08:02:24.175Z,37.80
2018-10-19T08:03:24.177Z,34.70
2018-10-19T08:04:24.201Z,36.70
2018-10-19T08:05:24.200Z,36.50
2018-10-19T08:06:24.169Z,36.30
2018-10-19T08:07:24.168Z,36.10
2018-10-19T08:08:24.163Z,37.60
2018-10-19T08:09:24.164Z,34.30
2018-10-19T08:10:24.193Z,36.70
2018-10-19T08:11:24.170Z,37.10
2018-10-19T08:12:24.159Z,34.60
2018-10-19T08:13:24.159Z,35.70
2018-10-19T08:14:24.156Z,37.80
2018-10-19T08:15:24.188Z,35.80
2018-10-19T08:16:24.156Z,33.00
2018-10-19T08:17:24.156Z,34.50
2018-10-19T08:18:24.156Z,34.00
2018-10-19T08:19:24.256Z,33.20
2018-10-19T08:20:24.181Z,31.50
2018-10-19T08:21:24.149Z,31.90
2018-10-19T08:22:24.148Z,32.80
2018-10-19T08:23:24.156Z,29.90
2018-10-19T08:24:24.149Z,26.90
2018-10-19T08:25:24.178Z,28.80
2018-10-19T08:26:24.147Z,28.10
2018-10-19T08:27:24.251Z,27.50
2018-10-19T08:28:24.137Z,31.80
2018-10-19T08:29:24.138Z,27.00
2018-10-19T08:30:24.165Z,27.80
2018-10-19T08:31:24.133Z,32.90
2018-10-19T08:32:24.134Z,28.40
2018-10-19T08:33:24.132Z,25.70
2018-10-19T08:34:24.134Z,25.30
2018-10-19T08:35:24.162Z,26.10
2018-10-19T08:36:24.140Z,24.80
2018-10-19T08:37:25.965Z,25.60
2018-10-19T08:38:24.129Z,29.30
2018-10-19T08:39:24.130Z,25.90
2018-10-19T08:40:24.162Z,25.30
2018-10-19T08:41:24.161Z,23.80
2018-10-19T08:42:24.129Z,24.30
2018-10-19T08:43:24.131Z,27.10
2018-10-19T08:44:24.153Z,23.70
2018-10-19T08:45:24.154Z,24.80
2018-10-19T08:46:24.123Z,26.50
2018-10-19T08:47:24.124Z,23.30
2018-10-19T08:48:24.123Z,24.30
2018-10-19T08:49:24.125Z,22.40
2018-10-19T08:50:24.152Z,24.20
2018-10-19T08:51:24.121Z,24.80
2018-10-19T08:52:24.119Z,22.30
2018-10-19T08:53:24.168Z,22.20
2018-10-19T08:54:24.186Z,22.50
2018-10-19T08:55:24.161Z,23.30
2018-10-19T08:56:24.914Z,22.90
2018-10-19T08:57:24.955Z,23.50
2018-10-19T08:58:24.982Z,22.50
2018-10-19T08:59:25.971Z,23.80
2018-10-19T09:00:24.141Z,22.10
2018-10-19T09:01:24.117Z,21.40
2018-10-19T09:02:24.118Z,21.30
2018-10-19T09:03:24.146Z,21.20
2018-10-19T09:04:24.114Z,24.80
2018-10-19T09:05:24.145Z,21.60
2018-10-19T09:06:24.116Z,22.50
2018-10-19T09:07:24.117Z,20.80
2018-10-19T09:08:24.116Z,19.40
2018-10-19T09:09:24.113Z,22.90
2018-10-19T09:10:24.145Z,20.20
2018-10-19T09:11:24.156Z,19.40
2018-10-19T09:12:24.184Z,21.30
2018-10-19T09:13:26.953Z,20.00
2018-10-19T09:14:24.109Z,19.20
2018-10-19T09:15:24.138Z,17.30
2018-10-19T09:16:24.112Z,20.00
2018-10-19T09:17:24.399Z,19.10
2018-10-19T09:18:24.927Z,28.10
2018-10-19T09:19:24.175Z,20.50
2018-10-19T09:20:25.895Z,16.20
2018-10-19T09:21:24.127Z,19.90
2018-10-19T09:22:24.115Z,19.00
2018-10-19T09:23:24.126Z,18.20
2018-10-19T09:24:24.125Z,16.80
2018-10-19T09:25:24.159Z,17.40
2018-10-19T09:26:24.116Z,18.20
2018-10-19T09:27:25.044Z,17.30
2018-10-19T09:28:24.149Z,15.60
2018-10-19T09:29:24.183Z,18.20
2018-10-19T09:30:24.157Z,18.10
2018-10-19T09:31:24.126Z,16.20
2018-10-19T09:32:24.118Z,16.40
2018-10-19T09:33:24.121Z,20.20
2018-10-19T09:34:25.005Z,16.60
2018-10-19T09:35:24.191Z,21.10
2018-10-19T09:36:24.233Z,20.50
2018-10-19T09:37:24.129Z,18.30
2018-10-19T09:38:24.121Z,15.10
2018-10-19T09:39:24.155Z,16.40
2018-10-19T09:40:24.223Z,17.40
2018-10-19T09:41:25.295Z,18.70
2018-10-19T09:42:24.133Z,20.70
2018-10-19T09:43:24.124Z,21.30
2018-10-19T09:44:24.131Z,19.90
2018-10-19T09:45:24.158Z,20.10
2018-10-19T09:46:24.126Z,20.50
2018-10-19T09:47:24.167Z,23.30
2018-10-19T09:48:24.136Z,20.50
2018-10-19T09:49:24.833Z,18.20
2018-10-19T09:50:24.165Z,18.60
2018-10-19T09:51:24.145Z,17.20
2018-10-19T09:52:24.131Z,16.60
2018-10-19T09:53:24.134Z,20.00
2018-10-19T09:54:24.147Z,18.50
2018-10-19T09:55:24.196Z,21.20
2018-10-19T09:56:24.827Z,20.30
2018-10-19T09:57:24.168Z,16.50
2018-10-19T09:58:24.149Z,19.60
2018-10-19T09:59:24.159Z,19.30
2018-10-19T10:00:24.163Z,18.20
2018-10-19T10:01:24.147Z,18.40
2018-10-19T10:02:24.129Z,19.90
2018-10-19T10:03:24.136Z,16.60
2018-10-19T10:04:24.157Z,17.30
2018-10-19T10:05:24.141Z,16.90
2018-10-19T10:06:24.170Z,16.80
2018-10-19T10:07:24.128Z,17.50
2018-10-19T10:08:24.132Z,16.60
2018-10-19T10:09:24.139Z,16.70
2018-10-19T10:10:24.172Z,14.20
2018-10-19T10:11:24.133Z,14.80
2018-10-19T10:12:24.135Z,16.60
2018-10-19T10:13:24.138Z,15.40
2018-10-19T10:14:24.141Z,16.30
2018-10-19T10:15:24.441Z,18.10
2018-10-19T10:16:24.144Z,14.70
2018-10-19T10:17:24.139Z,17.40
2018-10-19T10:18:24.268Z,18.80
2018-10-19T10:19:24.132Z,15.60
2018-10-19T10:20:24.155Z,15.90
2018-10-19T10:21:24.131Z,18.30
2018-10-19T10:22:24.133Z,15.30
2018-10-19T10:23:24.124Z,20.80
2018-10-19T10:24:24.152Z,17.10
2018-10-19T10:25:24.186Z,18.50
2018-10-19T10:26:24.161Z,17.20
2018-10-19T10:27:24.148Z,18.70
2018-10-19T10:28:24.143Z,17.60
2018-10-19T10:29:24.134Z,16.60
2018-10-19T10:30:24.164Z,15.30
2018-10-19T10:31:24.149Z,16.50
2018-10-19T10:32:24.191Z,16.20
2018-10-19T10:33:24.147Z,15.20
2018-10-19T10:34:24.211Z,14.80
2018-10-19T10:35:24.156Z,16.90
2018-10-19T10:36:24.160Z,15.40
2018-10-19T10:37:24.133Z,15.10
2018-10-19T10:38:24.148Z,18.00
2018-10-19T10:39:24.253Z,16.90
2018-10-19T10:40:24.164Z,17.40
2018-10-19T10:41:24.134Z,16.90
2018-10-19T10:42:24.131Z,19.10
2018-10-19T10:43:24.176Z,17.80
2018-10-19T10:44:24.168Z,20.40
2018-10-19T10:45:24.136Z,16.90
2018-10-19T10:46:24.146Z,20.00
2018-10-19T10:47:24.132Z,15.80
2018-10-19T10:48:24.133Z,15.90
2018-10-19T10:49:24.165Z,18.50
2018-10-19T10:50:24.171Z,16.60
2018-10-19T10:51:24.134Z,15.60
2018-10-19T10:52:24.137Z,17.50
2018-10-19T10:53:24.144Z,19.70
2018-10-19T10:54:24.133Z,17.40
2018-10-19T10:55:24.171Z,17.00
2018-10-19T10:56:24.136Z,18.80
2018-10-19T10:57:24.136Z,18.30
2018-10-19T10:58:24.147Z,17.60
2018-10-19T10:59:24.135Z,17.70
2018-10-19T11:00:24.169Z,18.90
2018-10-19T11:01:24.145Z,16.20
2018-10-19T11:02:24.154Z,16.90
2018-10-19T11:03:24.146Z,17.40
2018-10-19T11:04:24.131Z,17.00
2018-10-19T11:05:24.180Z,19.10
2018-10-19T11:06:24.149Z,17.40
2018-10-19T11:07:24.214Z,17.90
2018-10-19T11:08:24.143Z,16.20
2018-10-19T11:09:24.144Z,15.90
2018-10-19T11:10:24.181Z,17.20
2018-10-19T11:11:24.151Z,18.20
2018-10-19T11:12:24.988Z,20.60
2018-10-19T11:13:24.154Z,15.90
2018-10-19T11:14:24.144Z,19.10
2018-10-19T11:15:24.217Z,18.60
2018-10-19T11:16:24.144Z,18.60
2018-10-19T11:17:24.142Z,21.30
2018-10-19T11:18:24.153Z,17.50
2018-10-19T11:19:24.159Z,18.10
2018-10-19T11:20:24.190Z,19.70
2018-10-19T11:21:24.148Z,20.20
2018-10-19T11:22:24.154Z,17.90
2018-10-19T11:23:24.999Z,18.10
2018-10-19T11:24:24.183Z,19.00
2018-10-19T11:25:24.201Z,22.60
2018-10-19T11:26:24.150Z,18.40
2018-10-19T11:27:24.976Z,17.90
2018-10-19T11:28:24.154Z,17.70
2018-10-19T11:29:24.160Z,17.90
2018-10-19T11:30:24.286Z,18.40
2018-10-19T11:31:24.156Z,18.80
2018-10-19T11:32:24.980Z,17.10
2018-10-19T11:33:24.166Z,19.10
2018-10-19T11:34:24.155Z,17.50
2018-10-19T11:35:24.193Z,18.90
2018-10-19T11:36:24.161Z,17.50
2018-10-19T11:37:24.195Z,18.00
2018-10-19T11:38:24.161Z,19.40
2018-10-19T11:39:24.175Z,17.40
2018-10-19T11:40:24.201Z,17.90
2018-10-19T11:41:24.170Z,18.80
2018-10-19T11:42:24.990Z,19.00
2018-10-19T11:43:24.166Z,18.50
2018-10-19T11:44:24.172Z,18.70
2018-10-19T11:45:24.198Z,19.80
2018-10-19T11:46:24.171Z,18.90
2018-10-19T11:47:24.167Z,17.40
2018-10-19T11:48:24.172Z,19.90
2018-10-19T11:49:24.170Z,18.30
2018-10-19T11:50:24.203Z,19.50
2018-10-19T11:51:24.172Z,19.70
2018-10-19T11:52:24.183Z,17.70
2018-10-19T11:53:24.180Z,19.00
2018-10-19T11:54:24.182Z,19.70
2018-10-19T11:55:24.207Z,17.70
2018-10-19T11:56:24.177Z,15.90
2018-10-19T11:57:24.209Z,18.40
2018-10-19T11:58:24.182Z,18.60
2018-10-19T11:59:24.181Z,15.90
2018-10-19T12:00:24.982Z,19.40
2018-10-19T12:01:24.218Z,16.10
2018-10-19T12:02:24.197Z,17.80
2018-10-19T12:03:24.212Z,17.80
2018-10-19T12:04:24.190Z,19.40
2018-10-19T12:05:24.217Z,17.40
2018-10-19T12:06:24.190Z,19.50
2018-10-19T12:07:24.188Z,18.40
2018-10-19T12:08:24.189Z,18.60
2018-10-19T12:09:24.191Z,16.40
2018-10-19T12:10:24.218Z,19.40
2018-10-19T12:11:24.194Z,20.50
2018-10-19T12:12:24.187Z,19.70
2018-10-19T12:13:24.982Z,18.30
2018-10-19T12:14:24.988Z,19.00
2018-10-19T12:15:24.228Z,18.00
2018-10-19T12:16:24.215Z,19.50
2018-10-19T12:17:24.201Z,18.10
2018-10-19T12:18:24.204Z,17.00
2018-10-19T12:19:24.207Z,19.80
2018-10-19T12:20:24.238Z,18.40
2018-10-19T12:21:24.222Z,18.20
2018-10-19T12:22:24.209Z,18.50
2018-10-19T12:23:24.251Z,25.60
2018-10-19T12:24:24.208Z,17.30
2018-10-19T12:25:24.207Z,17.20
2018-10-19T12:26:24.236Z,20.00
2018-10-19T12:27:24.213Z,18.50
2018-10-19T12:28:24.214Z,17.60
2018-10-19T12:29:24.214Z,17.50
2018-10-19T12:30:24.245Z,18.60
2018-10-19T12:31:24.988Z,18.20
2018-10-19T12:32:24.218Z,18.70
2018-10-19T12:33:24.246Z,20.00
2018-10-19T12:34:24.217Z,17.00
2018-10-19T12:35:24.239Z,18.80
2018-10-19T12:36:24.249Z,20.20
2018-10-19T12:37:24.234Z,21.20
2018-10-19T12:38:24.586Z,18.70
2018-10-19T12:39:24.225Z,19.70
2018-10-19T12:40:24.227Z,19.40
2018-10-19T12:41:24.262Z,20.00
2018-10-19T12:42:24.992Z,20.60
2018-10-19T12:43:24.234Z,19.30
2018-10-19T12:44:24.985Z,18.90
2018-10-19T12:45:24.225Z,20.20
2018-10-19T12:46:24.264Z,21.60
2018-10-19T12:47:24.321Z,23.80
2018-10-19T12:48:24.262Z,21.10
2018-10-19T12:49:24.235Z,22.10
2018-10-19T12:50:24.249Z,22.00
2018-10-19T12:51:24.244Z,21.90
2018-10-19T12:52:24.267Z,23.70